Time;durP1;ratioP1;P1;durP2;ratioP2;P2;SDS_P1;SDS_P2;PMS_P1;PMS_P2;Temp;Humidity;BMP_temperature;BMP_pressure;BME280_temperature;BME280_humidity;BME280_pressure;Samples;Min_cycle;Max_cycle;Signal;HPM_P1;HPM_P2
2021/11/09 00:00:05;;;;;;;187.73;31.03;;;9.60;99.90;;;;;;5074141;28;20465;-74
2021/11/09 00:02:38;;;;;;;107.43;25.60;;;9.60;99.90;;;;;;5075387;28;20833;-74
2021/11/09 00:05:10;;;;;;;113.00;22.50;;;9.60;99.90;;;;;;5075335;28;20433;-74
2021/11/09 00:07:43;;;;;;;175.20;32.80;;;9.60;99.90;;;;;;5074057;28;20433;-74
2021/11/09 00:10:13;;;;;;;160.93;41.23;;;9.60;99.90;;;;;;5078749;28;20436;-74
2021/11/09 00:12:43;;;;;;;142.37;27.73;;;9.60;99.90;;;;;;5094159;28;20444;-74
2021/11/09 00:15:14;;;;;;;138.83;28.67;;;9.60;99.90;;;;;;5094004;28;20470;-74
2021/11/09 00:17:43;;;;;;;223.13;37.83;;;9.60;99.90;;;;;;5094437;28;20416;-74
2021/11/09 00:20:14;;;;;;;210.57;40.17;;;9.60;99.90;;;;;;5075947;28;20805;-74
2021/11/09 00:22:43;;;;;;;175.60;35.27;;;9.60;99.90;;;;;;5094806;28;20448;-74
2021/11/09 00:25:14;;;;;;;115.47;27.90;;;9.60;99.90;;;;;;5095383;28;20820;-74
2021/11/09 00:27:42;;;;;;;172.13;30.80;;;9.60;99.90;;;;;;5095135;28;20913;-74
2021/11/09 00:30:13;;;;;;;107.00;20.90;;;9.60;99.90;;;;;;5093756;28;20448;-74
2021/11/09 00:32:43;;;;;;;191.60;34.43;;;9.60;99.90;;;;;;5095119;28;20420;-74
2021/11/09 00:35:13;;;;;;;134.47;24.57;;;9.60;99.90;;;;;;5073618;28;20465;-74
2021/11/09 00:37:44;;;;;;;109.90;28.77;;;9.60;99.90;;;;;;5073547;28;20439;-74
2021/11/09 00:40:16;;;;;;;183.83;40.50;;;9.60;99.90;;;;;;5074908;28;20444;-74
2021/11/09 00:42:45;;;;;;;174.03;27.93;;;9.60;99.90;;;;;;5073088;28;20465;-74
2021/11/09 00:45:15;;;;;;;132.87;28.80;;;9.60;99.90;;;;;;5073254;28;20950;-75
2021/11/09 00:47:44;;;;;;;165.20;31.20;;;9.60;99.90;;;;;;5074788;28;20844;-74
2021/11/09 00:50:15;;;;;;;174.50;36.93;;;9.60;99.90;;;;;;5074205;28;20499;-74
2021/11/09 00:52:44;;;;;;;117.93;29.80;;;9.60;99.90;;;;;;5073220;28;20441;-74
2021/11/09 00:55:14;;;;;;;196.57;39.17;;;9.60;99.90;;;;;;5084599;28;20484;-74
2021/11/09 00:57:44;;;;;;;94.90;29.17;;;9.60;99.90;;;;;;5094488;28;20416;-74
2021/11/09 01:00:17;;;;;;;139.53;29.80;;;9.60;99.90;;;;;;5093174;28;20861;-74
2021/11/09 01:02:47;;;;;;;200.60;50.23;;;9.60;99.90;;;;;;5090650;28;20967;-74
2021/11/09 01:05:20;;;;;;;150.80;36.50;;;9.60;99.90;;;;;;5072799;28;20954;-74
2021/11/09 01:07:49;;;;;;;166.20;35.50;;;9.50;99.90;;;;;;5074207;28;20500;-74
2021/11/09 01:10:19;;;;;;;165.03;34.87;;;9.50;99.90;;;;;;5076174;28;20514;-74
2021/11/09 01:12:47;;;;;;;109.40;29.17;;;9.50;99.90;;;;;;5083968;28;20467;-74
2021/11/09 01:15:17;;;;;;;183.13;34.03;;;9.50;99.90;;;;;;5092817;28;20511;-74
2021/11/09 01:17:46;;;;;;;121.77;32.33;;;9.50;99.90;;;;;;5094700;28;20432;-74
2021/11/09 01:20:18;;;;;;;242.73;48.17;;;9.50;99.90;;;;;;5092766;28;20448;-74
2021/11/09 01:22:50;;;;;;;128.53;32.80;;;9.50;99.90;;;;;;5092862;28;20428;-74
2021/11/09 01:25:20;;;;;;;202.97;41.13;;;9.40;99.90;;;;;;5093716;28;20448;-74
2021/11/09 01:27:49;;;;;;;231.53;47.27;;;9.40;99.90;;;;;;5094671;28;20427;-74
2021/11/09 01:30:19;;;;;;;135.57;32.20;;;9.40;99.90;;;;;;5092633;28;20451;-74
2021/11/09 01:32:48;;;;;;;173.93;36.53;;;9.40;99.90;;;;;;5090463;28;20417;-74
2021/11/09 01:35:17;;;;;;;152.23;37.90;;;9.40;99.90;;;;;;5069002;28;20537;-74
2021/11/09 01:37:45;;;;;;;116.40;34.90;;;9.40;99.90;;;;;;5063755;28;20456;-74
2021/11/09 01:40:14;;;;;;;118.37;36.73;;;9.30;99.90;;;;;;5072369;28;20445;-74
2021/11/09 01:42:44;;;;;;;149.00;34.73;;;9.30;99.90;;;;;;5072074;28;20453;-74
2021/11/09 01:45:14;;;;;;;125.63;32.47;;;9.30;99.90;;;;;;5073532;28;20441;-74
2021/11/09 01:47:43;;;;;;;219.20;50.07;;;9.30;99.90;;;;;;5072300;28;20949;-74
2021/11/09 01:50:13;;;;;;;231.70;48.53;;;9.30;99.90;;;;;;5073691;28;20452;-74
2021/11/09 01:52:42;;;;;;;153.27;38.57;;;9.30;99.90;;;;;;5072425;28;20448;-75
2021/11/09 01:55:14;;;;;;;89.70;28.17;;;9.30;99.90;;;;;;5074902;28;20484;-74
2021/11/09 01:57:48;;;;;;;196.40;46.07;;;9.30;99.90;;;;;;5092983;28;20517;-74
2021/11/09 02:00:21;;;;;;;159.87;31.97;;;9.30;99.90;;;;;;5092824;28;20860;-74
2021/11/09 02:02:51;;;;;;;147.87;43.63;;;9.30;99.90;;;;;;5092377;28;20935;-74
2021/11/09 02:05:21;;;;;;;164.27;38.50;;;9.30;99.90;;;;;;5090646;28;20868;-74
2021/11/09 02:07:52;;;;;;;180.07;41.63;;;9.30;99.90;;;;;;5073662;28;20414;-74
2021/11/09 02:10:23;;;;;;;134.50;37.43;;;9.30;99.90;;;;;;5073224;28;20421;-74
2021/11/09 02:12:53;;;;;;;204.67;41.80;;;9.30;99.90;;;;;;5073273;28;20426;-74
2021/11/09 02:15:21;;;;;;;156.17;35.53;;;9.30;99.90;;;;;;5073696;28;20421;-74
2021/11/09 02:17:50;;;;;;;252.47;42.77;;;9.30;99.90;;;;;;5071740;28;20817;-74
2021/11/09 02:20:22;;;;;;;187.27;40.60;;;9.30;99.90;;;;;;5075027;28;20513;-74
2021/11/09 02:22:52;;;;;;;132.47;42.70;;;9.30;99.90;;;;;;5089249;28;20829;-74
2021/11/09 02:25:24;;;;;;;186.43;46.57;;;9.30;99.90;;;;;;5093321;28;20436;-74
2021/11/09 02:27:52;;;;;;;211.27;47.20;;;9.30;99.90;;;;;;5093599;28;20420;-74
2021/11/09 02:30:24;;;;;;;149.93;37.60;;;9.30;99.90;;;;;;5091973;28;20458;-74
2021/11/09 02:32:53;;;;;;;96.40;26.40;;;9.30;99.90;;;;;;5090310;28;20452;-74
2021/11/09 02:35:22;;;;;;;132.83;45.20;;;9.30;99.90;;;;;;5073055;28;21007;-74
2021/11/09 02:37:54;;;;;;;141.67;31.27;;;9.30;99.90;;;;;;5071605;28;20564;-74
2021/11/09 02:40:23;;;;;;;156.10;35.93;;;9.30;99.90;;;;;;5073251;28;20899;-74
2021/11/09 02:42:55;;;;;;;131.17;35.57;;;9.30;99.90;;;;;;5089107;28;20512;-74
2021/11/09 02:45:35;;;;;;;187.13;41.67;;;9.30;99.90;;;;;;5093120;28;20982;-74
2021/11/09 02:48:10;;;;;;;145.33;42.00;;;9.30;99.90;;;;;;5092122;28;20427;-74
2021/11/09 02:50:41;;;;;;;156.77;34.50;;;9.30;99.90;;;;;;5090645;28;20475;-74
2021/11/09 02:53:14;;;;;;;188.13;40.07;;;9.30;99.90;;;;;;5085516;28;20445;-74
2021/11/09 02:55:45;;;;;;;108.63;31.80;;;9.30;99.90;;;;;;5073335;28;20424;-74
2021/11/09 02:58:25;;;;;;;116.80;32.40;;;9.30;99.90;;;;;;5071581;28;20437;-74
2021/11/09 03:01:05;;;;;;;109.00;36.17;;;9.30;99.90;;;;;;5071428;28;20926;-74
2021/11/09 03:03:36;;;;;;;131.83;37.33;;;9.30;99.90;;;;;;5072873;28;20478;-74
2021/11/09 03:06:21;;;;;;;149.60;37.43;;;9.30;99.90;;;;;;5073116;28;20426;-74
2021/11/09 03:08:55;;;;;;;168.97;42.73;;;9.30;99.90;;;;;;5072655;28;20960;-74
2021/11/09 03:11:24;;;;;;;155.03;34.73;;;9.30;99.90;;;;;;5070148;28;21084;-74
2021/11/09 03:13:53;;;;;;;118.40;36.70;;;9.30;99.90;;;;;;5071689;28;20451;-74
2021/11/09 03:16:22;;;;;;;198.50;46.30;;;9.30;99.90;;;;;;5072801;28;20552;-74
2021/11/09 03:18:53;;;;;;;140.47;44.50;;;9.30;99.90;;;;;;5071333;28;20452;-74
2021/11/09 03:46:39;;;;;;;101.80;30.30;;;9.30;99.90;;;;;;5054449;28;20503;-74
2021/11/09 03:49:08;;;;;;;203.27;49.40;;;9.30;99.90;;;;;;5055635;28;20488;-74
2021/11/09 03:51:37;;;;;;;210.20;57.50;;;9.30;99.90;;;;;;5080753;28;20525;-74
2021/11/09 03:54:11;;;;;;;197.87;45.53;;;9.30;99.90;;;;;;5094548;28;20528;-74
2021/11/09 03:56:44;;;;;;;145.27;35.53;;;9.30;99.90;;;;;;5094523;28;20960;-74
2021/11/09 03:59:16;;;;;;;155.27;35.93;;;9.30;99.90;;;;;;5094586;28;20895;-74
2021/11/09 04:01:59;;;;;;;67.63;31.10;;;9.30;99.90;;;;;;5096050;28;20973;-74
2021/11/09 04:04:35;;;;;;;160.97;39.63;;;9.30;99.90;;;;;;5089790;28;20788;-74
2021/11/09 04:07:08;;;;;;;186.13;48.97;;;9.30;99.90;;;;;;5094479;28;20450;-74
2021/11/09 04:09:49;;;;;;;104.63;40.13;;;9.30;99.90;;;;;;5075909;28;20520;-74
2021/11/09 04:15:13;;;;;;;141.73;39.23;;;9.30;99.90;;;;;;5073565;28;20451;-74
2021/11/09 04:17:58;;;;;;;138.30;39.07;;;9.30;99.90;;;;;;5073846;28;20910;-74
2021/11/09 04:20:39;;;;;;;235.07;50.80;;;9.30;99.90;;;;;;5095394;28;20452;-74
2021/11/09 04:23:37;;;;;;;143.57;40.83;;;9.30;99.90;;;;;;5094020;28;20471;-74
2021/11/09 04:29:09;;;;;;;137.90;38.70;;;9.30;99.90;;;;;;5095510;28;20428;-74
2021/11/09 05:02:36;;;;;;;194.90;48.10;;;9.10;99.90;;;;;;5073852;28;20476;-74
2021/11/09 05:10:37;;;;;;;153.00;31.77;;;8.90;99.90;;;;;;5074133;28;20548;-74
2021/11/09 05:13:05;;;;;;;140.63;36.63;;;8.90;99.90;;;;;;5074639;28;20535;-74
2021/11/09 05:15:34;;;;;;;173.57;36.53;;;8.90;99.90;;;;;;5077114;28;20539;-74
2021/11/09 05:18:04;;;;;;;178.97;43.97;;;8.90;99.90;;;;;;5092933;28;20525;-74
2021/11/09 05:20:32;;;;;;;129.40;41.40;;;8.80;99.90;;;;;;5089948;28;20496;-74
2021/11/09 05:23:01;;;;;;;100.43;30.83;;;8.80;99.90;;;;;;5053842;28;20445;-74
2021/11/09 05:25:29;;;;;;;127.40;40.63;;;8.80;99.90;;;;;;5077053;28;20436;-74
2021/11/09 05:27:57;;;;;;;125.87;32.50;;;8.70;99.90;;;;;;5077245;28;20444;-74
2021/11/09 05:30:25;;;;;;;176.47;35.53;;;8.70;99.90;;;;;;5073198;28;20815;-74
2021/11/09 05:32:58;;;;;;;127.00;34.23;;;8.70;99.90;;;;;;5072530;28;20449;-74
2021/11/09 05:35:29;;;;;;;140.87;30.87;;;8.70;99.90;;;;;;5073939;28;20417;-74
2021/11/09 05:37:58;;;;;;;149.97;30.83;;;8.60;99.90;;;;;;5073836;28;20471;-74
2021/11/09 05:40:30;;;;;;;144.53;38.60;;;8.60;99.90;;;;;;5073537;28;20437;-74
2021/11/09 05:42:58;;;;;;;149.53;39.23;;;8.60;99.90;;;;;;5072066;28;20472;-74
2021/11/09 05:45:27;;;;;;;144.43;36.33;;;8.50;99.90;;;;;;5074847;28;20461;-74
2021/11/09 05:47:56;;;;;;;178.63;35.70;;;8.50;99.90;;;;;;5094021;28;20446;-74
2021/11/09 05:50:24;;;;;;;245.33;47.13;;;8.50;99.90;;;;;;5088748;28;20491;-74
2021/11/09 05:52:54;;;;;;;173.40;40.30;;;8.50;99.90;;;;;;5074007;28;20511;-74
2021/11/09 05:55:22;;;;;;;142.73;38.43;;;8.50;99.90;;;;;;5072087;28;21032;-74
2021/11/09 05:57:50;;;;;;;179.40;43.23;;;8.40;99.90;;;;;;5072018;28;20496;-74
2021/11/09 06:00:19;;;;;;;130.37;39.13;;;8.40;99.90;;;;;;5072093;28;20449;-74
2021/11/09 06:02:47;;;;;;;174.73;39.77;;;8.40;99.90;;;;;;5073636;28;20444;-73
2021/11/09 06:05:16;;;;;;;143.57;29.87;;;8.30;99.90;;;;;;5073279;28;20442;-74
2021/11/09 06:07:44;;;;;;;120.77;30.90;;;8.30;99.90;;;;;;5073925;28;20929;-74
2021/11/09 06:10:14;;;;;;;109.17;41.37;;;8.30;99.90;;;;;;5072641;28;20429;-75
2021/11/09 06:12:42;;;;;;;149.50;37.00;;;8.30;99.90;;;;;;5069833;28;20866;-74
2021/11/09 06:15:10;;;;;;;178.67;42.93;;;8.30;99.90;;;;;;5072876;28;20451;-74
2021/11/09 06:17:39;;;;;;;133.80;42.17;;;8.20;99.90;;;;;;5072083;28;20507;-74
2021/11/09 06:20:08;;;;;;;192.60;52.87;;;8.20;99.90;;;;;;5073265;28;20493;-74
2021/11/09 06:22:37;;;;;;;141.90;43.90;;;8.20;99.90;;;;;;5072039;28;20487;-74
2021/11/09 06:25:06;;;;;;;180.83;37.97;;;8.20;99.90;;;;;;5073439;28;20490;-74
2021/11/09 06:27:36;;;;;;;154.50;38.33;;;8.10;99.90;;;;;;5071846;28;20459;-74
2021/11/09 06:30:05;;;;;;;125.77;41.23;;;8.10;99.90;;;;;;5071892;28;20455;-74
2021/11/09 06:32:34;;;;;;;104.50;40.93;;;8.10;99.90;;;;;;5072994;28;20860;-74
2021/11/09 06:35:03;;;;;;;135.00;45.60;;;8.10;99.90;;;;;;5071795;28;20441;-74
2021/11/09 06:37:33;;;;;;;159.07;46.93;;;8.10;99.90;;;;;;5071764;28;20538;-74
2021/11/09 06:40:01;;;;;;;155.37;43.73;;;8.00;99.90;;;;;;5072985;28;21035;-74
2021/11/09 06:42:29;;;;;;;115.77;46.37;;;8.00;99.90;;;;;;5071456;28;20597;-74
2021/11/09 06:44:59;;;;;;;98.83;39.07;;;8.00;99.90;;;;;;5073089;28;20802;-74
2021/11/09 06:47:27;;;;;;;165.47;46.13;;;8.00;99.90;;;;;;5071715;28;20452;-74
2021/11/09 06:49:55;;;;;;;137.60;41.77;;;8.00;99.90;;;;;;5072889;28;20431;-75
2021/11/09 06:52:24;;;;;;;197.23;41.17;;;8.00;99.90;;;;;;5072872;28;20896;-74
2021/11/09 06:54:53;;;;;;;165.17;58.57;;;8.00;99.90;;;;;;5074016;28;20509;-74
2021/11/09 06:57:41;;;;;;;191.60;43.13;;;7.90;99.90;;;;;;5075420;28;20496;-74
2021/11/09 07:00:13;;;;;;;157.37;44.30;;;7.90;99.90;;;;;;5075527;28;20539;-75
2021/11/09 07:02:42;;;;;;;154.20;51.63;;;7.90;99.90;;;;;;5076652;28;20493;-75
2021/11/09 07:05:10;;;;;;;171.67;48.33;;;7.90;99.90;;;;;;5075383;28;20492;-74
2021/11/09 07:07:40;;;;;;;106.50;44.17;;;7.90;99.90;;;;;;5077000;28;20444;-74
2021/11/09 07:10:09;;;;;;;134.10;51.90;;;7.90;99.90;;;;;;5076732;28;20435;-74
2021/11/09 07:12:38;;;;;;;106.40;47.53;;;7.90;99.90;;;;;;5075046;28;20551;-74
2021/11/09 07:15:07;;;;;;;118.27;51.00;;;7.90;99.90;;;;;;5075031;28;20497;-74
2021/11/09 07:17:38;;;;;;;110.20;44.00;;;7.90;99.90;;;;;;5075020;28;20456;-74
2021/11/09 07:20:09;;;;;;;161.37;51.70;;;7.90;99.90;;;;;;5074876;28;20463;-75
2021/11/09 07:22:37;;;;;;;201.13;61.07;;;7.80;99.90;;;;;;5075585;28;20534;-74
2021/11/09 07:25:08;;;;;;;121.47;50.53;;;7.80;99.90;;;;;;5076385;28;20432;-74
2021/11/09 07:27:37;;;;;;;171.33;48.47;;;7.90;99.90;;;;;;5074946;28;20523;-74
2021/11/09 07:30:06;;;;;;;164.57;53.93;;;7.80;99.90;;;;;;5076230;28;20520;-75
2021/11/09 07:32:36;;;;;;;123.53;45.43;;;7.80;99.90;;;;;;5075987;28;20466;-74
2021/11/09 07:35:05;;;;;;;167.30;50.83;;;7.90;99.90;;;;;;5074650;28;20541;-74
2021/11/09 07:37:34;;;;;;;89.33;39.47;;;7.90;99.90;;;;;;5074731;28;20470;-74
2021/11/09 07:40:04;;;;;;;114.13;40.23;;;7.90;99.90;;;;;;5076667;28;20552;-75
2021/11/09 07:42:32;;;;;;;175.03;52.50;;;7.90;99.90;;;;;;5076183;28;20451;-75
2021/11/09 07:45:00;;;;;;;125.27;48.40;;;7.90;99.90;;;;;;5076548;28;20516;-74
2021/11/09 07:47:29;;;;;;;139.23;50.57;;;7.90;99.90;;;;;;5076727;28;20436;-74
2021/11/09 07:49:58;;;;;;;114.40;42.60;;;7.90;99.90;;;;;;5076043;28;20423;-75
2021/11/09 07:52:26;;;;;;;163.67;47.60;;;7.90;99.90;;;;;;5075509;28;20506;-74
2021/11/09 07:54:59;;;;;;;170.77;43.73;;;7.90;99.90;;;;;;5076288;28;20503;-75
2021/11/09 07:57:31;;;;;;;135.03;48.93;;;7.90;99.90;;;;;;5074878;28;20476;-75
2021/11/09 08:00:05;;;;;;;177.23;53.20;;;7.90;99.90;;;;;;5074832;28;20514;-74
2021/11/09 08:02:45;;;;;;;190.07;55.87;;;7.90;99.90;;;;;;5074759;28;20467;-74
2021/11/09 08:05:16;;;;;;;133.33;46.47;;;8.00;99.90;;;;;;5074711;28;20471;-75
2021/11/09 08:07:52;;;;;;;82.30;40.63;;;7.90;99.90;;;;;;5074092;28;20445;-74
2021/11/09 08:10:21;;;;;;;80.80;38.63;;;8.00;99.90;;;;;;5074629;28;20518;-74
2021/11/09 08:12:49;;;;;;;221.00;50.90;;;8.00;99.90;;;;;;5074721;28;20444;-74
2021/11/09 08:15:18;;;;;;;175.73;47.70;;;8.00;99.90;;;;;;5074041;28;20481;-75
2021/11/09 08:17:46;;;;;;;140.80;47.10;;;8.00;99.90;;;;;;5075227;28;20964;-74
2021/11/09 08:20:15;;;;;;;164.03;50.20;;;8.00;99.90;;;;;;5075217;28;20561;-74
2021/11/09 08:22:44;;;;;;;110.00;40.60;;;8.00;99.90;;;;;;5075496;28;20566;-74
2021/11/09 08:25:12;;;;;;;87.23;41.17;;;8.10;99.90;;;;;;5073715;28;20483;-75
2021/11/09 08:27:40;;;;;;;123.47;46.33;;;8.10;99.90;;;;;;5075125;28;20526;-75
2021/11/09 08:30:09;;;;;;;135.60;41.77;;;8.10;99.90;;;;;;5073652;28;20445;-74
2021/11/09 08:32:38;;;;;;;112.87;42.93;;;8.20;99.90;;;;;;5075108;28;20444;-75
2021/11/09 08:35:08;;;;;;;157.90;50.70;;;8.20;99.90;;;;;;5073586;28;20452;-75
2021/11/09 08:37:38;;;;;;;140.20;42.33;;;8.20;99.90;;;;;;5074967;28;20436;-74
2021/11/09 08:40:13;;;;;;;134.03;47.70;;;8.30;99.90;;;;;;5074991;28;20487;-75
2021/11/09 08:42:46;;;;;;;199.03;53.93;;;8.30;99.90;;;;;;5074865;28;20446;-74
2021/11/09 08:45:22;;;;;;;187.37;52.57;;;8.40;99.90;;;;;;5074620;28;20951;-75
2021/11/09 08:47:53;;;;;;;170.57;43.57;;;8.40;99.90;;;;;;5074560;28;20474;-74
2021/11/09 08:50:23;;;;;;;161.27;41.60;;;8.40;99.90;;;;;;5074022;28;20472;-75
2021/11/09 08:52:54;;;;;;;138.77;42.07;;;8.50;99.90;;;;;;5074560;28;20439;-75
2021/11/09 08:55:34;;;;;;;255.03;54.47;;;8.50;99.90;;;;;;5074551;28;20976;-75
2021/11/09 09:01:21;;;;;;;173.07;45.70;;;8.60;99.90;;;;;;5074851;28;20480;-74
2021/11/09 09:06:35;;;;;;;126.00;39.43;;;8.70;99.90;;;;;;5074546;28;20867;-75
2021/11/09 09:09:05;;;;;;;124.90;44.03;;;8.70;99.90;;;;;;5074176;28;20431;-75
2021/11/09 09:11:34;;;;;;;242.37;64.60;;;8.80;99.90;;;;;;5074244;28;20830;-75
2021/11/09 09:14:04;;;;;;;185.00;50.53;;;8.80;99.90;;;;;;5072752;28;20440;-74
2021/11/09 09:16:34;;;;;;;184.97;48.47;;;8.90;99.90;;;;;;5074013;28;20472;-75
2021/11/09 09:19:04;;;;;;;143.47;43.27;;;8.90;99.90;;;;;;5073867;28;20437;-75
2021/11/09 09:21:37;;;;;;;176.60;50.73;;;9.00;99.90;;;;;;5073981;28;20481;-75
2021/11/09 09:24:12;;;;;;;171.70;48.70;;;9.00;99.90;;;;;;5074446;28;20422;-75
2021/11/09 09:26:46;;;;;;;299.90;59.53;;;9.10;99.90;;;;;;5073872;28;20795;-75
2021/11/09 09:29:30;;;;;;;166.57;45.20;;;9.10;99.90;;;;;;5074156;28;20453;-75
2021/11/09 09:54:29;;;;;;;176.27;46.63;;;9.60;99.90;;;;;;5073746;28;20474;-75
2021/11/09 09:57:00;;;;;;;229.83;52.53;;;9.60;99.90;;;;;;5073490;28;20513;-75
2021/11/09 09:59:31;;;;;;;155.10;41.93;;;9.60;99.90;;;;;;5072118;28;20496;-75
2021/11/09 10:02:08;;;;;;;160.80;38.30;;;9.70;99.90;;;;;;5073395;28;21027;-74
2021/11/09 10:04:40;;;;;;;191.93;48.93;;;9.70;99.90;;;;;;5073061;28;20870;-74
2021/11/09 10:07:09;;;;;;;250.17;51.87;;;9.80;99.90;;;;;;5073658;28;20512;-75
2021/11/09 10:09:41;;;;;;;388.57;61.57;;;9.80;99.90;;;;;;5072095;28;20946;-75
2021/11/09 10:12:21;;;;;;;265.37;53.50;;;9.90;99.90;;;;;;5073208;28;20510;-75
2021/11/09 10:14:53;;;;;;;293.73;58.07;;;9.90;99.90;;;;;;5071992;28;20498;-75
2021/11/09 10:17:24;;;;;;;268.90;74.67;;;10.00;99.90;;;;;;5072064;28;20441;-75
2021/11/09 10:19:53;;;;;;;331.03;73.07;;;10.00;99.90;;;;;;5071975;28;20465;-75
2021/11/09 10:22:27;;;;;;;372.93;75.03;;;10.10;99.90;;;;;;5071891;28;20460;-75
2021/11/09 10:24:59;;;;;;;260.80;57.93;;;10.10;99.90;;;;;;5073844;28;20424;-75
2021/11/09 10:27:30;;;;;;;429.17;80.17;;;10.10;99.90;;;;;;5071909;28;20479;-74
2021/11/09 10:29:59;;;;;;;374.57;75.10;;;10.10;99.90;;;;;;5073226;28;20483;-75
2021/11/09 10:32:30;;;;;;;381.63;88.17;;;10.20;99.90;;;;;;5075806;28;20549;-74
2021/11/09 10:35:01;;;;;;;410.97;91.00;;;10.30;99.90;;;;;;5077438;28;20424;-75
2021/11/09 10:37:32;;;;;;;377.47;66.63;;;10.30;99.90;;;;;;5075758;28;20519;-75
2021/11/09 10:40:18;;;;;;;420.07;85.13;;;10.30;99.90;;;;;;5075620;28;20461;-75
2021/11/09 10:42:50;;;;;;;380.53;102.77;;;10.40;99.90;;;;;;5075595;28;20503;-75
2021/11/09 10:45:20;;;;;;;258.57;65.23;;;10.40;99.90;;;;;;5076934;28;20459;-75
2021/11/09 10:47:50;;;;;;;399.70;88.30;;;10.50;99.90;;;;;;5075565;28;20441;-75
2021/11/09 10:50:22;;;;;;;399.67;78.13;;;10.50;99.90;;;;;;5077059;28;20441;-75
2021/11/09 10:53:02;;;;;;;492.43;105.90;;;10.50;99.90;;;;;;5077167;28;20855;-75
2021/11/09 10:55:38;;;;;;;437.27;107.47;;;10.60;99.90;;;;;;5077110;28;20433;-75
2021/11/09 10:58:27;;;;;;;403.53;90.43;;;10.60;99.90;;;;;;5077021;28;20474;-74
2021/11/09 11:04:02;;;;;;;415.10;73.10;;;10.70;99.90;;;;;;5075249;28;20444;-75
2021/11/09 11:06:32;;;;;;;404.80;81.30;;;10.70;99.90;;;;;;5076673;28;20421;-75
2021/11/09 11:09:17;;;;;;;538.30;112.53;;;10.80;99.90;;;;;;5075201;28;20441;-75
2021/11/09 11:12:05;;;;;;;444.13;92.60;;;10.80;99.90;;;;;;5076522;28;20554;-75
2021/11/09 11:14:39;;;;;;;481.30;91.77;;;10.90;99.90;;;;;;5076608;28;20520;-75
2021/11/09 11:17:09;;;;;;;365.70;112.50;;;10.90;99.90;;;;;;5076578;28;20422;-75
2021/11/09 11:19:40;;;;;;;443.43;93.70;;;10.90;99.90;;;;;;5076174;28;20468;-75
2021/11/09 11:22:09;;;;;;;389.43;81.57;;;10.90;99.90;;;;;;5076071;28;20534;-75
2021/11/09 11:24:39;;;;;;;460.63;104.10;;;11.00;99.90;;;;;;5076144;28;20516;-75
2021/11/09 11:27:09;;;;;;;630.63;123.67;;;11.00;99.90;;;;;;5076742;28;20444;-75
2021/11/09 11:29:40;;;;;;;400.83;79.77;;;11.10;99.90;;;;;;5075573;28;20456;-75
2021/11/09 11:32:11;;;;;;;706.87;122.20;;;11.10;99.90;;;;;;5074749;28;20515;-75
2021/11/09 11:34:40;;;;;;;484.57;89.67;;;11.10;99.90;;;;;;5074796;28;20471;-75
2021/11/09 11:37:09;;;;;;;151.00;56.20;;;11.20;99.90;;;;;;5074429;28;20450;-75
2021/11/09 11:39:39;;;;;;;1999.90;800.43;;;11.20;99.90;;;;;;5075890;28;20252;-75
2021/11/09 11:42:11;;;;;;;909.97;194.43;;;11.30;99.90;;;;;;5073239;28;20509;-74
2021/11/09 11:44:42;;;;;;;448.00;117.17;;;11.30;99.90;;;;;;5074507;28;20506;-75
2021/11/09 11:47:18;;;;;;;725.77;135.70;;;11.30;99.90;;;;;;5075746;28;20500;-75
2021/11/09 11:49:53;;;;;;;565.93;106.83;;;11.30;99.90;;;;;;5074480;28;20873;-75
2021/11/09 11:52:26;;;;;;;416.30;62.07;;;11.40;99.90;;;;;;5075603;28;20563;-75
2021/11/09 11:55:06;;;;;;;702.43;125.90;;;11.40;99.90;;;;;;5074420;28;20433;-75
2021/11/09 11:57:41;;;;;;;697.63;124.80;;;11.40;99.90;;;;;;5074306;28;20445;-75
2021/11/09 12:00:28;;;;;;;477.93;84.57;;;11.40;99.90;;;;;;5075495;28;20428;-75
2021/11/09 12:02:57;;;;;;;715.13;133.20;;;11.40;99.90;;;;;;5074968;28;20452;-75
2021/11/09 12:05:38;;;;;;;612.57;134.63;;;11.40;99.90;;;;;;5075686;28;20780;-75
2021/11/09 12:08:08;;;;;;;654.07;134.87;;;11.40;99.90;;;;;;5075393;28;20417;-75
2021/11/09 12:10:46;;;;;;;498.07;103.60;;;11.40;99.90;;;;;;5074064;28;20573;-75
2021/11/09 12:13:17;;;;;;;565.57;82.93;;;11.40;99.90;;;;;;5075590;28;20836;-75
2021/11/09 12:15:55;;;;;;;485.97;98.57;;;11.40;99.90;;;;;;5074041;28;20517;-75
2021/11/09 12:18:42;;;;;;;413.13;92.53;;;11.50;99.90;;;;;;5074788;28;20512;-75
2021/11/09 12:21:38;;;;;;;783.90;144.57;;;11.50;99.90;;;;;;5073820;28;20563;-75
2021/11/09 12:24:19;;;;;;;276.97;65.90;;;11.50;99.90;;;;;;5073821;28;20442;-75
2021/11/09 12:26:50;;;;;;;383.60;103.40;;;11.50;99.90;;;;;;5075363;28;20894;-75
2021/11/09 12:29:42;;;;;;;578.13;104.83;;;11.50;99.90;;;;;;5073665;28;20433;-75
2021/11/09 12:32:35;;;;;;;484.93;111.23;;;11.50;99.90;;;;;;5073575;28;21024;-75
2021/11/09 12:35:20;;;;;;;492.30;101.40;;;11.60;99.90;;;;;;5073613;28;20974;-75
2021/11/09 12:38:06;;;;;;;471.53;120.33;;;11.60;99.90;;;;;;5075618;28;20825;-75
2021/11/09 12:40:37;;;;;;;356.20;81.43;;;11.60;99.90;;;;;;5073431;28;20507;-74
2021/11/09 12:43:17;;;;;;;520.23;117.40;;;11.70;99.90;;;;;;5075174;28;20483;-74
2021/11/09 12:45:49;;;;;;;637.10;136.93;;;11.70;99.90;;;;;;5073482;28;20441;-74
2021/11/09 12:48:26;;;;;;;1086.73;227.13;;;11.70;99.90;;;;;;5074943;28;20492;-74
2021/11/09 12:50:58;;;;;;;690.83;129.83;;;11.80;99.90;;;;;;5073385;28;20526;-74
2021/11/09 12:53:28;;;;;;;949.17;195.67;;;11.80;99.90;;;;;;5072944;28;20461;-74
2021/11/09 12:56:02;;;;;;;972.53;206.97;;;11.80;99.90;;;;;;5073241;28;20496;-74
2021/11/09 12:58:37;;;;;;;544.97;156.73;;;11.80;99.90;;;;;;5075268;28;20518;-74
2021/11/09 13:01:22;;;;;;;765.80;188.93;;;11.90;99.90;;;;;;5073181;28;20472;-74
2021/11/09 13:06:57;;;;;;;936.27;235.10;;;11.90;99.90;;;;;;5073976;28;20451;-74
2021/11/09 13:09:30;;;;;;;1360.23;312.47;;;12.00;99.90;;;;;;5074468;28;20429;-75
2021/11/09 13:12:01;;;;;;;1819.40;470.50;;;12.00;99.90;;;;;;5074316;28;20556;-74
2021/11/09 13:14:40;;;;;;;1999.90;999.90;;;12.10;99.90;;;;;;5072904;28;20499;-75
2021/11/09 13:17:37;;;;;;;1999.90;404.77;;;12.10;99.90;;;;;;5072812;28;20456;-75
2021/11/09 13:20:17;;;;;;;1999.90;999.90;;;12.10;99.90;;;;;;5074224;28;20504;-75
2021/11/09 13:22:56;;;;;;;1624.13;696.43;;;12.10;99.90;;;;;;5072577;28;20518;-75
2021/11/09 13:25:31;;;;;;;1999.90;999.90;;;12.20;99.90;;;;;;5072659;28;20437;-75
2021/11/09 13:28:02;;;;;;;1999.90;999.90;;;12.10;99.90;;;;;;5074178;28;20471;-75
2021/11/09 13:30:49;;;;;;;1999.90;999.90;;;12.20;99.90;;;;;;5073759;28;20468;-75
2021/11/09 13:33:18;;;;;;;1999.90;999.90;;;12.20;99.90;;;;;;5074049;28;20425;-75
2021/11/09 13:35:48;;;;;;;1309.10;405.73;;;12.20;99.90;;;;;;5073898;28;20432;-75
2021/11/09 13:38:18;;;;;;;1999.90;999.90;;;12.20;99.90;;;;;;5073667;28;20986;-75
2021/11/09 13:40:49;;;;;;;1999.90;999.90;;;12.20;99.90;;;;;;5072272;28;20465;-74
2021/11/09 13:43:19;;;;;;;1999.90;999.90;;;12.20;99.90;;;;;;5072451;28;20469;-75
2021/11/09 13:45:56;;;;;;;1999.90;999.90;;;12.20;99.90;;;;;;5072379;28;20492;-75
2021/11/09 13:48:25;;;;;;;1999.90;999.90;;;12.20;99.90;;;;;;5072300;28;20445;-75
2021/11/09 13:50:59;;;;;;;1469.50;681.33;;;12.30;99.90;;;;;;5072128;28;20539;-75
2021/11/09 13:53:29;;;;;;;1999.90;999.90;;;12.30;99.90;;;;;;5074040;28;20428;-75
2021/11/09 13:55:58;;;;;;;1999.90;999.90;;;12.20;99.90;;;;;;5072233;28;20445;-75
2021/11/09 13:58:26;;;;;;;1999.90;999.90;;;12.20;99.90;;;;;;5072200;28;20449;-75
2021/11/09 14:00:59;;;;;;;1999.90;999.90;;;12.20;99.90;;;;;;5071990;28;20461;-75
2021/11/09 14:03:40;;;;;;;1999.90;999.90;;;12.20;99.90;;;;;;5073621;28;20552;-75
2021/11/09 14:09:39;;;;;;;1627.90;339.27;;;12.20;99.90;;;;;;5072021;28;20477;-75
2021/11/09 14:12:22;;;;;;;1196.23;259.47;;;12.10;99.90;;;;;;5072272;28;20464;-75
2021/11/09 14:15:11;;;;;;;1798.33;374.83;;;12.10;99.90;;;;;;5073627;28;20457;-75
2021/11/09 14:17:39;;;;;;;1415.07;310.77;;;12.10;99.90;;;;;;5072280;28;20845;-75
2021/11/09 14:20:13;;;;;;;1197.60;300.40;;;12.10;99.90;;;;;;5071943;28;20444;-75
2021/11/09 14:22:46;;;;;;;1999.90;493.40;;;12.10;99.90;;;;;;5072043;28;20465;-75
2021/11/09 14:25:16;;;;;;;1999.90;410.63;;;12.00;99.90;;;;;;5073309;28;20424;-75
2021/11/09 14:27:48;;;;;;;1721.47;362.43;;;12.00;99.90;;;;;;5071911;28;20499;-75
2021/11/09 14:30:24;;;;;;;921.03;163.07;;;12.00;99.90;;;;;;5073397;28;20519;-75